createdAt,value
2018-03-21T00:00:59.183Z,26.18
2018-03-21T00:03:28.391Z,26.13
2018-03-21T00:05:57.379Z,26.12
2018-03-21T00:08:27.437Z,26.09
2018-03-21T00:10:56.913Z,26.05
2018-03-21T00:13:25.982Z,26.03
2018-03-21T00:15:55.130Z,25.98
2018-03-21T00:18:24.513Z,25.97
2018-03-21T00:20:53.578Z,25.93
2018-03-21T00:23:22.660Z,25.92
2018-03-21T00:25:51.996Z,25.87
2018-03-21T00:28:21.710Z,25.86
2018-03-21T00:30:50.766Z,25.83
2018-03-21T00:33:20.218Z,25.81
2018-03-21T00:35:49.114Z,25.80
2018-03-21T00:38:18.212Z,25.77
2018-03-21T00:40:47.290Z,25.74
2018-03-21T00:43:16.355Z,25.69
2018-03-21T00:45:45.432Z,25.68
2018-03-21T00:48:14.878Z,25.65
2018-03-21T00:50:43.940Z,25.62
2018-03-21T00:53:13.010Z,25.60
2018-03-21T00:55:42.462Z,25.55
2018-03-21T00:58:11.527Z,25.55
2018-03-21T01:00:40.589Z,25.51
2018-03-21T01:03:09.994Z,25.50
2018-03-21T01:05:39.073Z,25.48
2018-03-21T01:08:08.130Z,25.46
2018-03-21T01:10:37.529Z,25.44
2018-03-21T01:13:06.595Z,25.41
2018-03-21T01:15:35.650Z,25.39
2018-03-21T01:18:04.725Z,25.35
2018-03-21T01:20:33.793Z,25.30
2018-03-21T01:23:02.893Z,25.28
2018-03-21T01:25:32.343Z,25.24
2018-03-21T01:28:01.394Z,25.22
2018-03-21T01:30:30.456Z,25.18
2018-03-21T01:32:59.817Z,25.15
2018-03-21T01:35:28.694Z,25.13
2018-03-21T01:37:57.610Z,25.11
2018-03-21T01:40:26.510Z,25.06
2018-03-21T01:42:55.397Z,25.04
2018-03-21T01:45:24.490Z,25.02
2018-03-21T01:47:53.893Z,25.00
2018-03-21T01:50:22.949Z,24.94
2018-03-21T01:53:03.654Z,24.94
2018-03-21T01:55:32.654Z,24.89
2018-03-21T01:58:01.646Z,24.87
2018-03-21T02:00:31.040Z,24.87
2018-03-21T02:02:59.949Z,24.83
2018-03-21T02:05:29.007Z,24.82
2018-03-21T02:07:58.407Z,24.78
2018-03-21T02:10:27.466Z,24.73
2018-03-21T02:12:56.530Z,24.74
2018-03-21T02:15:25.613Z,24.72
2018-03-21T02:17:54.685Z,24.68
2018-03-21T02:20:23.768Z,24.67
2018-03-21T02:22:53.083Z,24.63
2018-03-21T02:25:22.140Z,24.60
2018-03-21T02:27:51.189Z,24.57
2018-03-21T02:30:20.362Z,24.58
2018-03-21T02:32:49.414Z,24.58
2018-03-21T02:35:18.483Z,24.54
2018-03-21T02:37:47.961Z,24.50
2018-03-21T02:40:16.862Z,24.49
2018-03-21T02:42:45.929Z,24.46
2018-03-21T02:45:15.356Z,24.44
2018-03-21T02:47:44.415Z,24.41
2018-03-21T02:50:13.482Z,24.40
2018-03-21T02:52:42.965Z,24.38
2018-03-21T02:55:12.027Z,24.34
2018-03-21T02:57:40.910Z,24.34
2018-03-21T03:00:10.343Z,24.31
2018-03-21T03:02:39.404Z,24.29
2018-03-21T03:05:11.358Z,24.27
2018-03-21T03:07:40.318Z,24.24
2018-03-21T03:10:09.326Z,24.21
2018-03-21T03:12:38.695Z,24.19
2018-03-21T03:15:07.747Z,24.17
2018-03-21T03:17:36.807Z,24.17
2018-03-21T03:20:05.906Z,24.13
2018-03-21T03:22:34.971Z,24.12
2018-03-21T03:25:04.038Z,24.09
2018-03-21T03:27:33.423Z,24.09
2018-03-21T03:30:02.496Z,24.08
2018-03-21T03:32:31.583Z,24.03
2018-03-21T03:35:00.938Z,24.01
2018-03-21T03:37:29.935Z,23.98
2018-03-21T03:39:59.048Z,23.99
2018-03-21T03:42:28.128Z,23.94
2018-03-21T03:44:56.938Z,23.94
2018-03-21T03:47:25.938Z,23.92
2018-03-21T03:49:55.314Z,23.92
2018-03-21T03:52:24.382Z,23.91
2018-03-21T03:54:53.433Z,23.88
2018-03-21T03:57:22.933Z,23.89
2018-03-21T03:59:51.985Z,23.88
2018-03-21T04:02:20.969Z,23.87
2018-03-21T04:04:50.069Z,23.86
2018-03-21T04:07:19.152Z,23.85
2018-03-21T04:09:48.217Z,23.83
2018-03-21T04:12:17.691Z,23.87
2018-03-21T04:14:46.746Z,23.85
2018-03-21T04:17:15.805Z,23.84
2018-03-21T04:19:45.162Z,23.52
2018-03-21T04:22:13.973Z,23.36
2018-03-21T04:24:43.034Z,23.35
2018-03-21T04:27:12.115Z,23.33
2018-03-21T04:29:41.179Z,23.43
2018-03-21T04:32:10.239Z,23.53
2018-03-21T04:34:39.603Z,23.62
2018-03-21T04:37:08.473Z,23.78
2018-03-21T04:39:37.465Z,23.87
2018-03-21T04:42:06.926Z,24.02
2018-03-21T04:44:35.798Z,23.95
2018-03-21T04:47:04.685Z,24.02
2018-03-21T04:49:33.517Z,24.07
2018-03-21T04:52:02.414Z,24.18
2018-03-21T04:54:31.697Z,24.32
2018-03-21T04:57:00.580Z,24.51
2018-03-21T04:59:29.386Z,24.61
2018-03-21T05:01:58.459Z,24.79
2018-03-21T05:04:28.073Z,24.96
2018-03-21T05:07:02.652Z,25.20
2018-03-21T05:09:32.107Z,25.36
2018-03-21T05:12:06.668Z,25.45
2018-03-21T05:14:36.045Z,25.53
2018-03-21T05:17:05.110Z,25.58
2018-03-21T05:19:34.188Z,25.71
2018-03-21T05:22:03.389Z,25.82
2018-03-21T05:24:32.457Z,25.93
2018-03-21T05:27:01.527Z,26.09
2018-03-21T05:29:31.227Z,26.22
2018-03-21T05:32:00.281Z,26.28
2018-03-21T05:34:31.042Z,26.41
2018-03-21T05:37:00.102Z,26.58
2018-03-21T05:39:29.131Z,26.61
2018-03-21T05:41:58.210Z,26.73
2018-03-21T05:44:27.246Z,26.83
2018-03-21T05:46:56.302Z,27.06
2018-03-21T05:49:25.645Z,27.18
2018-03-21T05:51:54.703Z,27.22
2018-03-21T05:54:23.754Z,27.41
2018-03-21T05:56:53.248Z,27.57
2018-03-21T05:59:22.301Z,27.70
2018-03-21T06:01:51.985Z,27.79
2018-03-21T06:04:21.400Z,27.96
2018-03-21T06:06:50.687Z,28.07
2018-03-21T06:09:19.711Z,28.18
2018-03-21T06:11:49.090Z,28.34
2018-03-21T06:14:18.146Z,28.38
2018-03-21T06:16:47.215Z,28.44
2018-03-21T06:19:16.558Z,28.58
2018-03-21T06:21:45.506Z,28.61
2018-03-21T06:24:14.528Z,28.75
2018-03-21T06:26:43.863Z,28.92
2018-03-21T06:29:13.078Z,28.88
2018-03-21T06:31:42.136Z,28.89
2018-03-21T06:34:11.157Z,28.91
2018-03-21T06:36:40.224Z,28.92
2018-03-21T06:39:09.291Z,28.84
2018-03-21T06:41:38.544Z,28.92
2018-03-21T06:44:07.606Z,29.03
2018-03-21T06:46:36.677Z,29.04
2018-03-21T06:49:06.098Z,29.06
2018-03-21T06:51:35.170Z,29.19
2018-03-21T06:54:04.221Z,29.24
2018-03-21T06:56:33.558Z,29.22
2018-03-21T06:59:02.622Z,29.25
2018-03-21T07:01:31.638Z,29.19
2018-03-21T07:04:00.961Z,29.20
2018-03-21T07:06:29.857Z,29.33
2018-03-21T07:09:00.061Z,29.30
2018-03-21T07:11:29.157Z,29.35
2018-03-21T07:14:09.634Z,29.51
2018-03-21T07:16:46.866Z,29.59
2018-03-21T07:19:15.929Z,29.65
2018-03-21T07:21:45.001Z,29.80
2018-03-21T07:24:14.467Z,29.79
2018-03-21T07:26:43.526Z,29.92
2018-03-21T07:29:12.612Z,29.95
2018-03-21T07:31:41.522Z,29.97
2018-03-21T07:34:10.518Z,30.02
2018-03-21T07:36:39.591Z,30.05
2018-03-21T07:39:08.700Z,30.08
2018-03-21T07:41:37.758Z,30.10
2018-03-21T07:44:06.771Z,30.23
2018-03-21T07:46:35.802Z,30.21
2018-03-21T07:49:04.680Z,30.25
2018-03-21T07:51:33.699Z,30.28
2018-03-21T07:54:02.854Z,30.24
2018-03-21T07:56:31.962Z,30.25
2018-03-21T07:59:01.133Z,30.27
2018-03-21T08:01:30.416Z,30.18
2018-03-21T08:03:59.487Z,30.06
2018-03-21T08:06:28.560Z,30.03
2018-03-21T08:08:57.921Z,29.92
2018-03-21T08:11:26.935Z,29.83
2018-03-21T08:13:56.040Z,29.79
2018-03-21T08:16:25.194Z,29.62
2018-03-21T08:18:54.509Z,29.59
2018-03-21T08:21:23.616Z,29.51
2018-03-21T08:23:53.187Z,29.54
2018-03-21T08:26:22.311Z,29.62
2018-03-21T08:28:51.384Z,29.68
2018-03-21T08:31:20.491Z,29.68
2018-03-21T08:33:49.583Z,29.56
2018-03-21T08:36:18.643Z,29.40
2018-03-21T08:38:47.666Z,29.32
2018-03-21T08:41:16.827Z,29.35
2018-03-21T08:43:45.909Z,29.27
2018-03-21T08:46:14.998Z,29.08
2018-03-21T08:48:44.064Z,29.00
2018-03-21T08:51:13.139Z,28.92
2018-03-21T08:53:43.271Z,28.84
2018-03-21T08:56:12.327Z,28.85
2018-03-21T08:58:41.392Z,28.93
2018-03-21T09:01:11.380Z,28.97
2018-03-21T09:03:40.457Z,29.01
2018-03-21T09:06:09.480Z,29.09
2018-03-21T09:08:38.610Z,29.16
2018-03-21T09:11:07.651Z,29.20
2018-03-21T09:13:36.784Z,29.24
2018-03-21T09:16:06.199Z,29.27
2018-03-21T09:18:35.281Z,29.28
2018-03-21T09:21:04.367Z,29.30
2018-03-21T09:23:33.462Z,29.32
2018-03-21T09:26:02.526Z,29.44
2018-03-21T09:28:31.664Z,29.39
2018-03-21T09:31:00.903Z,29.31
2018-03-21T09:33:30.031Z,29.26
2018-03-21T09:35:59.114Z,29.30
2018-03-21T09:38:28.255Z,29.26
2018-03-21T09:40:57.390Z,29.32
2018-03-21T09:43:26.395Z,29.30
2018-03-21T09:45:55.490Z,29.41
2018-03-21T09:48:24.557Z,29.41
2018-03-21T09:50:53.617Z,29.44
2018-03-21T09:53:22.642Z,29.46
2018-03-21T09:55:51.756Z,29.38
2018-03-21T09:58:21.002Z,29.28
2018-03-21T10:00:50.127Z,29.27
2018-03-21T10:03:19.533Z,29.22
2018-03-21T10:05:48.669Z,29.08
2018-03-21T10:08:17.706Z,28.98
2018-03-21T10:10:46.808Z,28.89
2018-03-21T10:13:15.884Z,28.79
2018-03-21T10:15:45.025Z,28.86
2018-03-21T10:18:14.204Z,28.77
2018-03-21T10:20:43.212Z,28.63
2018-03-21T10:23:12.229Z,28.41
2018-03-21T10:25:41.294Z,28.34
2018-03-21T10:28:10.371Z,28.37
2018-03-21T10:30:39.478Z,28.31
2018-03-21T10:33:08.303Z,28.15
2018-03-21T10:35:37.376Z,28.06
2018-03-21T10:38:06.355Z,28.35
2018-03-21T10:40:35.417Z,28.71
2018-03-21T10:43:04.259Z,28.78
2018-03-21T10:45:33.351Z,28.95
2018-03-21T10:48:02.469Z,28.93
2018-03-21T10:50:31.538Z,28.80
2018-03-21T10:53:00.642Z,28.73
2018-03-21T10:55:29.758Z,28.74
2018-03-21T10:57:58.843Z,28.75
2018-03-21T11:00:28.212Z,28.52
2018-03-21T11:03:02.908Z,28.36
2018-03-21T11:05:32.441Z,28.25
2018-03-21T11:08:01.521Z,28.29
2018-03-21T11:10:30.606Z,28.26
2018-03-21T11:13:00.052Z,28.24
2018-03-21T11:15:29.138Z,28.00
2018-03-21T11:17:58.220Z,27.78
2018-03-21T11:20:27.324Z,27.67
2018-03-21T11:22:56.385Z,27.78
2018-03-21T11:25:25.451Z,27.92
2018-03-21T11:27:54.544Z,28.01
2018-03-21T11:30:23.678Z,28.10
2018-03-21T11:32:52.748Z,28.25
2018-03-21T11:35:22.138Z,28.47
2018-03-21T11:37:51.219Z,28.58
2018-03-21T11:40:20.279Z,28.81
2018-03-21T11:42:49.674Z,28.82
2018-03-21T11:45:18.512Z,28.89
2018-03-21T11:47:47.442Z,28.88
2018-03-21T11:50:16.661Z,28.84
2018-03-21T11:52:45.719Z,28.83
2018-03-21T11:55:14.774Z,28.91
2018-03-21T11:57:44.101Z,28.93
2018-03-21T12:00:13.203Z,28.94
2018-03-21T12:02:42.294Z,29.05
2018-03-21T12:05:11.402Z,29.11
2018-03-21T12:07:41.359Z,29.05
2018-03-21T12:10:10.513Z,29.15
2018-03-21T12:12:39.872Z,29.12
2018-03-21T12:15:08.940Z,29.16
2018-03-21T12:17:38.010Z,29.21
2018-03-21T12:20:07.095Z,29.11
2018-03-21T12:22:36.163Z,29.21
2018-03-21T12:25:05.218Z,29.25
2018-03-21T12:27:34.321Z,29.31
2018-03-21T12:30:03.374Z,29.33
2018-03-21T12:32:32.462Z,29.31
2018-03-21T12:35:01.817Z,29.30
2018-03-21T12:37:30.905Z,29.25
2018-03-21T12:40:00.008Z,29.20
2018-03-21T12:42:29.502Z,29.09
2018-03-21T12:44:58.591Z,28.87
2018-03-21T12:47:27.669Z,28.90
2018-03-21T12:49:56.768Z,28.91
2018-03-21T12:52:26.076Z,28.67
2018-03-21T12:54:55.158Z,28.61
2018-03-21T12:57:24.257Z,28.54
2018-03-21T12:59:53.330Z,28.51
2018-03-21T13:02:22.426Z,28.38
2018-03-21T13:04:51.502Z,28.36
2018-03-21T13:07:20.578Z,28.26
2018-03-21T13:09:49.637Z,28.19
2018-03-21T13:12:18.773Z,28.17
2018-03-21T13:14:47.841Z,28.10
2018-03-21T13:17:16.905Z,28.07
2018-03-21T13:19:46.035Z,28.05
2018-03-21T13:22:15.338Z,28.01
2018-03-21T13:24:44.394Z,27.96
2018-03-21T13:27:13.922Z,27.94
2018-03-21T13:29:42.983Z,27.87
2018-03-21T13:32:12.086Z,27.85
2018-03-21T13:34:41.514Z,27.96
2018-03-21T13:37:10.645Z,27.87
2018-03-21T13:39:39.716Z,27.88
2018-03-21T13:42:08.827Z,27.86
2018-03-21T13:44:37.883Z,27.89
2018-03-21T13:47:06.954Z,27.94
2018-03-21T13:49:36.102Z,27.96
2018-03-21T13:52:05.168Z,27.98
2018-03-21T13:54:34.224Z,27.94
2018-03-21T13:57:03.303Z,27.86
2018-03-21T13:59:32.373Z,27.80
2018-03-21T14:02:01.442Z,27.81
2018-03-21T14:04:30.624Z,27.79
2018-03-21T14:06:59.769Z,27.85
2018-03-21T14:09:28.864Z,27.95
2018-03-21T14:11:57.945Z,27.97
2018-03-21T14:14:27.018Z,28.01
2018-03-21T14:16:56.128Z,28.10
2018-03-21T14:19:25.210Z,28.10
2018-03-21T14:21:54.285Z,28.18
2018-03-21T14:24:23.365Z,28.20
2018-03-21T14:26:52.835Z,28.32
2018-03-21T14:29:21.916Z,28.39
2018-03-21T14:31:50.977Z,28.45
2018-03-21T14:34:20.099Z,28.38
2018-03-21T14:36:49.167Z,28.43
2018-03-21T14:39:18.233Z,28.36
2018-03-21T14:41:47.614Z,28.13
2018-03-21T14:44:16.696Z,28.08
2018-03-21T14:46:45.802Z,28.07
2018-03-21T14:49:15.194Z,28.08
2018-03-21T14:51:44.469Z,28.05
2018-03-21T14:54:13.542Z,28.00
2018-03-21T14:56:42.630Z,28.14
2018-03-21T14:59:11.719Z,28.21
2018-03-21T15:01:40.784Z,28.28
2018-03-21T15:04:09.878Z,28.37
2018-03-21T15:06:38.985Z,28.34
2018-03-21T15:09:08.080Z,28.38
2018-03-21T15:11:37.561Z,28.42
2018-03-21T15:14:06.378Z,28.43
2018-03-21T15:16:35.425Z,28.50
2018-03-21T15:19:04.533Z,28.49
2018-03-21T15:21:33.368Z,28.64
2018-03-21T15:24:02.450Z,28.54
2018-03-21T15:26:31.537Z,28.56
2018-03-21T15:29:00.599Z,28.60
2018-03-21T15:31:29.660Z,28.43
2018-03-21T15:33:58.778Z,28.17
2018-03-21T15:36:27.839Z,28.00
2018-03-21T15:38:56.913Z,28.04
2018-03-21T15:41:26.318Z,28.07
2018-03-21T15:43:55.395Z,28.20
2018-03-21T15:46:24.455Z,28.29
2018-03-21T15:48:53.882Z,28.36
2018-03-21T15:51:23.043Z,28.47
2018-03-21T15:53:52.279Z,28.53
2018-03-21T15:56:21.375Z,28.44
2018-03-21T15:58:50.477Z,28.60
2018-03-21T16:01:19.639Z,28.63
2018-03-21T16:03:48.726Z,28.68
2018-03-21T16:06:17.791Z,28.45
2018-03-21T16:08:46.694Z,28.22
2018-03-21T16:11:15.638Z,28.02
2018-03-21T16:13:44.664Z,27.78
2018-03-21T16:16:13.726Z,27.70
2018-03-21T16:18:42.810Z,27.67
2018-03-21T16:21:11.902Z,27.48
2018-03-21T16:23:40.923Z,27.36
2018-03-21T16:26:10.127Z,27.37
2018-03-21T16:28:39.213Z,27.35
2018-03-21T16:31:08.280Z,27.15
2018-03-21T16:33:37.787Z,27.06
2018-03-21T16:36:06.858Z,27.11
2018-03-21T16:38:35.741Z,27.22
2018-03-21T16:41:05.206Z,27.14
2018-03-21T16:43:34.101Z,27.02
2018-03-21T16:46:03.165Z,26.96
2018-03-21T16:48:32.252Z,26.96
2018-03-21T16:51:01.312Z,27.08
2018-03-21T16:53:30.386Z,27.19
2018-03-21T16:55:59.770Z,27.29
2018-03-21T16:58:28.833Z,27.39
2018-03-21T17:00:57.902Z,27.55
2018-03-21T17:03:26.985Z,27.66
2018-03-21T17:05:56.043Z,27.72
2018-03-21T17:08:25.148Z,27.86
2018-03-21T17:10:54.225Z,27.93
2018-03-21T17:13:23.134Z,27.97
2018-03-21T17:15:52.196Z,28.04
2018-03-21T17:18:22.014Z,28.08
2018-03-21T17:20:51.088Z,28.14
2018-03-21T17:23:20.150Z,28.24
2018-03-21T17:25:49.325Z,28.26
2018-03-21T17:28:18.384Z,28.30
2018-03-21T17:30:47.451Z,28.43
2018-03-21T17:33:16.716Z,28.48
2018-03-21T17:35:45.778Z,28.56
2018-03-21T17:38:14.841Z,28.59
2018-03-21T17:40:43.921Z,28.66
2018-03-21T17:43:12.981Z,28.71
2018-03-21T17:45:42.039Z,28.83
2018-03-21T17:48:11.883Z,28.86
2018-03-21T17:50:40.961Z,28.84
2018-03-21T17:53:10.031Z,28.98
2018-03-21T17:55:39.047Z,29.01
2018-03-21T17:58:08.113Z,28.96
2018-03-21T18:00:37.186Z,28.97
2018-03-21T18:03:06.583Z,29.03
2018-03-21T18:05:35.645Z,29.05
2018-03-21T18:08:04.713Z,29.16
2018-03-21T18:10:33.794Z,29.17
2018-03-21T18:13:02.870Z,29.28
2018-03-21T18:15:31.929Z,29.36
2018-03-21T18:18:01.010Z,29.45
2018-03-21T18:20:30.082Z,29.44
2018-03-21T18:22:59.171Z,29.54
2018-03-21T18:25:28.262Z,29.59
2018-03-21T18:27:57.134Z,29.66
2018-03-21T18:30:26.194Z,29.72
2018-03-21T18:32:55.275Z,29.73
2018-03-21T18:35:24.333Z,29.66
2018-03-21T18:37:53.446Z,29.67
2018-03-21T18:40:22.691Z,29.62
2018-03-21T18:42:51.754Z,29.51
2018-03-21T18:45:20.824Z,29.52
2018-03-21T18:47:49.911Z,29.49
2018-03-21T18:50:18.979Z,29.36
2018-03-21T18:52:47.982Z,29.27
2018-03-21T18:55:17.057Z,29.10
2018-03-21T18:57:46.122Z,29.02
2018-03-21T19:00:15.195Z,28.88
2018-03-21T19:02:44.613Z,28.78
2018-03-21T19:05:13.686Z,28.79
2018-03-21T19:07:42.770Z,28.84
2018-03-21T19:10:11.853Z,28.95
2018-03-21T19:12:40.916Z,28.83
2018-03-21T19:15:10.019Z,28.71
2018-03-21T19:17:39.150Z,28.67
2018-03-21T19:20:08.213Z,28.64
2018-03-21T19:22:37.330Z,28.65
2018-03-21T19:25:06.418Z,28.75
2018-03-21T19:27:35.523Z,28.91
2018-03-21T19:30:04.091Z,29.09
2018-03-21T19:32:33.173Z,29.20
2018-03-21T19:35:02.250Z,29.29
2018-03-21T19:37:31.326Z,29.38
2018-03-21T19:40:00.403Z,29.44
2018-03-21T19:42:29.478Z,29.52
2018-03-21T19:44:58.543Z,29.61
2018-03-21T19:47:27.947Z,29.69
2018-03-21T19:49:56.834Z,29.78
2018-03-21T19:52:25.908Z,29.90
2018-03-21T19:54:55.002Z,30.01
2018-03-21T19:57:24.074Z,30.09
2018-03-21T19:59:53.203Z,30.18
2018-03-21T20:02:22.604Z,30.29
2018-03-21T20:04:51.677Z,30.34
2018-03-21T20:07:20.946Z,30.42
2018-03-21T20:09:50.600Z,30.44
2018-03-21T20:12:19.692Z,30.46
2018-03-21T20:14:48.822Z,30.40
2018-03-21T20:17:18.194Z,30.42
2018-03-21T20:19:47.280Z,30.48
2018-03-21T20:22:16.345Z,30.59
2018-03-21T20:24:45.812Z,30.62
2018-03-21T20:27:14.875Z,30.67
2018-03-21T20:29:43.941Z,30.71
2018-03-21T20:32:13.019Z,30.73
2018-03-21T20:34:42.109Z,30.71
2018-03-21T20:37:11.177Z,30.77
2018-03-21T20:39:40.250Z,30.85
2018-03-21T20:42:09.303Z,30.86
2018-03-21T20:44:38.366Z,30.89
2018-03-21T20:47:07.454Z,30.88
2018-03-21T20:49:36.523Z,30.85
2018-03-21T20:52:05.394Z,30.96
2018-03-21T20:54:34.839Z,30.95
2018-03-21T20:57:03.898Z,30.87
2018-03-21T20:59:32.961Z,30.79
2018-03-21T21:02:02.037Z,30.80
2018-03-21T21:04:31.111Z,30.73
2018-03-21T21:07:00.190Z,30.70
2018-03-21T21:09:29.278Z,30.62
2018-03-21T21:11:58.338Z,30.51
2018-03-21T21:14:27.394Z,30.39
2018-03-21T21:16:56.540Z,30.31
2018-03-21T21:19:25.640Z,30.22
2018-03-21T21:21:54.870Z,30.14
2018-03-21T21:24:23.977Z,30.07
2018-03-21T21:26:53.045Z,30.01
2018-03-21T21:29:22.108Z,29.96
2018-03-21T21:31:51.097Z,29.90
2018-03-21T21:34:20.704Z,29.87
2018-03-21T21:36:50.414Z,29.81
2018-03-21T21:39:19.262Z,29.75
2018-03-21T21:41:48.324Z,29.69
2018-03-21T21:44:17.886Z,29.68
2018-03-21T21:46:46.995Z,29.61
2018-03-21T21:49:16.340Z,29.57
2018-03-21T21:51:45.423Z,29.52
2018-03-21T21:54:14.863Z,29.48
2018-03-21T21:56:43.936Z,29.41
2018-03-21T21:59:13.076Z,29.38
2018-03-21T22:01:42.318Z,29.33
2018-03-21T22:04:11.374Z,29.27
2018-03-21T22:06:40.429Z,29.24
2018-03-21T22:09:09.517Z,29.19
2018-03-21T22:11:38.581Z,29.14
2018-03-21T22:14:07.643Z,29.09
2018-03-21T22:16:36.726Z,29.05
2018-03-21T22:19:05.793Z,29.01
2018-03-21T22:21:34.845Z,28.97
2018-03-21T22:24:03.929Z,28.96
2018-03-21T22:26:32.984Z,28.90
2018-03-21T22:29:02.043Z,28.86
2018-03-21T22:31:31.109Z,28.83
2018-03-21T22:34:00.197Z,28.76
2018-03-21T22:36:29.248Z,28.76
2018-03-21T22:38:58.612Z,28.72
2018-03-21T22:41:27.689Z,28.68
2018-03-21T22:43:56.742Z,28.63
2018-03-21T22:46:26.547Z,28.60
2018-03-21T22:48:55.605Z,28.56
2018-03-21T22:51:24.669Z,28.54
2018-03-21T22:53:54.032Z,28.48
2018-03-21T22:56:23.155Z,28.44
2018-03-21T22:58:52.218Z,28.40
2018-03-21T23:01:21.670Z,28.36
2018-03-21T23:03:50.727Z,28.32
2018-03-21T23:06:19.810Z,28.28
2018-03-21T23:08:48.716Z,28.26
2018-03-21T23:11:17.782Z,28.23
2018-03-21T23:13:46.845Z,28.19
2018-03-21T23:16:16.221Z,28.13
2018-03-21T23:18:45.157Z,28.10
2018-03-21T23:21:14.228Z,28.06
2018-03-21T23:23:43.318Z,28.02
2018-03-21T23:26:12.374Z,28.00
2018-03-21T23:28:41.468Z,27.95
2018-03-21T23:31:11.119Z,27.93
2018-03-21T23:33:40.183Z,27.88
2018-03-21T23:36:09.233Z,27.85
2018-03-21T23:38:38.310Z,27.79
2018-03-21T23:41:07.404Z,27.77
2018-03-21T23:43:36.466Z,27.74
2018-03-21T23:46:05.787Z,27.72
2018-03-21T23:48:34.873Z,27.67
2018-03-21T23:51:03.977Z,27.63
2018-03-21T23:53:33.573Z,27.60
2018-03-21T23:56:02.639Z,27.55
2018-03-21T23:58:31.715Z,27.54
